createdAt,value
2023-01-18T00:01:56.788Z,11.9
2023-01-18T00:07:19.358Z,11.8
2023-01-18T00:12:25.664Z,11.6
2023-01-18T00:17:49.085Z,11.4
2023-01-18T00:23:11.895Z,11.4
2023-01-18T00:28:34.219Z,11.4
2023-01-18T00:33:57.669Z,11.5
2023-01-18T00:39:07.968Z,11.5
2023-01-18T00:44:30.558Z,11.5
2023-01-18T00:49:53.724Z,11.4
2023-01-18T00:55:01.228Z,11.5
2023-01-18T01:00:07.733Z,11.6
2023-01-18T01:05:16.130Z,11.6
2023-01-18T01:10:38.551Z,11.6
2023-01-18T01:16:00.047Z,11.6
2023-01-18T01:21:23.364Z,11.6
2023-01-18T01:26:30.900Z,11.7
2023-01-18T01:31:37.600Z,11.8
2023-01-18T01:37:00.187Z,11.8
2023-01-18T01:41:51.636Z,11.8
2023-01-18T01:47:14.718Z,11.8
2023-01-18T01:52:36.260Z,11.8
2023-01-18T01:57:58.381Z,11.8
2023-01-18T02:03:21.117Z,11.8
2023-01-18T02:08:43.552Z,11.8
2023-01-18T02:14:05.727Z,11.9
2023-01-18T02:19:28.499Z,11.8
2023-01-18T02:24:50.690Z,11.8
2023-01-18T02:29:57.963Z,11.8
2023-01-18T02:35:21.040Z,11.8
2023-01-18T02:40:42.985Z,11.8
2023-01-18T02:46:09.061Z,11.8
2023-01-18T02:51:30.922Z,11.8
2023-01-18T02:56:53.396Z,11.7
2023-01-18T03:02:16.051Z,11.7
2023-01-18T03:07:39.025Z,11.6
2023-01-18T03:12:45.190Z,11.6
2023-01-18T03:17:37.281Z,11.6
2023-01-18T03:22:45.439Z,11.6
2023-01-18T03:27:52.274Z,11.6
2023-01-18T03:32:59.773Z,11.6
2023-01-18T03:38:22.279Z,11.6
2023-01-18T03:43:45.322Z,11.7
2023-01-18T03:48:52.589Z,11.8
2023-01-18T03:53:59.988Z,11.8
2023-01-18T03:59:22.185Z,11.8
2023-01-18T04:04:45.789Z,11.9
2023-01-18T04:10:07.843Z,11.9
2023-01-18T04:15:29.938Z,11.9
2023-01-18T04:20:52.093Z,12
2023-01-18T04:26:13.556Z,12
2023-01-18T04:31:05.769Z,12.1
2023-01-18T04:36:13.971Z,12.1
2023-01-18T04:41:36.564Z,12.1
2023-01-18T04:46:44.067Z,12.1
2023-01-18T04:52:06.651Z,12.2
2023-01-18T04:57:29.584Z,12.1
2023-01-18T05:02:53.227Z,12.2
2023-01-18T05:08:15.952Z,12.3
2023-01-18T05:13:38.312Z,12.3
2023-01-18T05:19:01.027Z,12.4
2023-01-18T05:24:24.017Z,12.4
2023-01-18T05:29:46.263Z,12.5
2023-01-18T05:35:12.004Z,12.6
2023-01-18T05:40:34.782Z,12.6
2023-01-18T05:45:44.366Z,12.6
2023-01-18T05:51:09.498Z,12.6
2023-01-18T05:56:32.155Z,12.7
2023-01-18T06:01:54.660Z,12.7
2023-01-18T06:07:02.281Z,12.7
2023-01-18T06:12:09.622Z,12.8
2023-01-18T06:17:19.563Z,12.8
2023-01-18T06:22:44.227Z,12.9
2023-01-18T06:28:07.478Z,12.9
2023-01-18T06:33:30.427Z,12.9
2023-01-18T06:38:52.889Z,12.9
2023-01-18T06:44:16.557Z,13
2023-01-18T06:49:39.383Z,13.2
2023-01-18T06:55:05.469Z,15.1
2023-01-18T07:00:28.185Z,18.6
2023-01-18T07:05:53.053Z,22.4
2023-01-18T07:11:00.288Z,25.4
2023-01-18T07:16:35.384Z,28.3
2023-01-18T07:21:58.455Z,30.8
2023-01-18T07:27:20.953Z,33.1
2023-01-18T07:32:44.275Z,35.2
2023-01-18T07:38:09.925Z,37.4
2023-01-18T07:43:35.247Z,39.6
2023-01-18T07:48:57.948Z,41.6
2023-01-18T07:54:20.737Z,43.4
2023-01-18T07:59:43.455Z,44.9
2023-01-18T08:05:07.776Z,46.7
2023-01-18T08:10:31.675Z,48.6
2023-01-18T08:15:57.880Z,50.3
2023-01-18T08:21:20.789Z,53.2
2023-01-18T08:26:43.563Z,51.9
2023-01-18T08:32:06.603Z,46
2023-01-18T08:37:29.967Z,46.6
2023-01-18T08:42:52.866Z,49.4
2023-01-18T08:48:15.315Z,54.1
2023-01-18T08:53:38.569Z,54.1
2023-01-18T08:58:46.326Z,49.7
2023-01-18T09:04:12.491Z,47.6
2023-01-18T09:09:35.782Z,51.8
2023-01-18T09:15:12.077Z,55.7
2023-01-18T09:20:36.657Z,52.9
2023-01-18T09:25:59.427Z,50.9
2023-01-18T09:31:22.373Z,51.1
2023-01-18T09:36:56.463Z,52.1
2023-01-18T09:42:28.189Z,52.9
2023-01-18T09:47:50.685Z,53.4
2023-01-18T09:53:13.279Z,53.6
2023-01-18T09:58:36.160Z,53.6
2023-01-18T10:03:44.006Z,53.8
2023-01-18T10:09:06.621Z,54.4
2023-01-18T10:14:30.459Z,55.1
2023-01-18T10:19:53.180Z,55.4
2023-01-18T10:25:15.827Z,55.8
2023-01-18T10:30:38.607Z,55.6
2023-01-18T10:36:01.510Z,55.9
2023-01-18T10:41:09.249Z,56
2023-01-18T10:46:33.176Z,55.9
2023-01-18T10:51:55.586Z,55.6
2023-01-18T10:57:18.671Z,55.6
2023-01-18T11:02:42.740Z,55.6
2023-01-18T11:08:06.004Z,55.6
2023-01-18T11:13:28.256Z,56.3
2023-01-18T11:18:52.849Z,56.8
2023-01-18T11:24:01.492Z,56.9
2023-01-18T11:29:25.709Z,56.6
2023-01-18T11:34:52.271Z,55.7
2023-01-18T11:40:14.142Z,55.4
2023-01-18T11:45:36.722Z,53.4
2023-01-18T11:51:16.290Z,55.8
2023-01-18T11:56:22.868Z,60.1
2023-01-18T12:01:47.097Z,58.4
2023-01-18T12:07:13.487Z,53
2023-01-18T12:12:52.193Z,52.5
2023-01-18T12:18:30.009Z,56.1
2023-01-18T12:23:53.271Z,60.9
2023-01-18T12:29:23.327Z,58.8
2023-01-18T12:34:55.877Z,52.8
2023-01-18T12:40:32.579Z,51.6
2023-01-18T12:45:55.338Z,52.7
2023-01-18T12:51:18.907Z,53.6
2023-01-18T12:56:52.039Z,53.9
2023-01-18T13:02:16.421Z,51.8
2023-01-18T13:07:41.949Z,46.3
2023-01-18T13:13:05.550Z,41.1
2023-01-18T13:18:28.433Z,36.9
2023-01-18T13:23:50.714Z,35.2
2023-01-18T13:29:13.998Z,32.7
2023-01-18T13:34:47.594Z,30.7
2023-01-18T13:40:47.777Z,28.6
2023-01-18T13:46:11.289Z,26.9
2023-01-18T13:51:51.303Z,25.4
2023-01-18T13:57:16.645Z,24.2
2023-01-18T14:02:40.297Z,23.2
2023-01-18T14:08:04.182Z,22.5
2023-01-18T14:13:28.422Z,22.1
2023-01-18T14:19:10.312Z,21.5
2023-01-18T14:24:32.679Z,21
2023-01-18T14:29:55.097Z,20.6
2023-01-18T14:35:19.222Z,20.1
2023-01-18T14:40:53.365Z,19.6
2023-01-18T14:46:10.610Z,19.1
2023-01-18T14:51:41.485Z,18.6
2023-01-18T14:57:04.166Z,18.2
2023-01-18T15:02:27.951Z,17.8
2023-01-18T15:07:35.909Z,17.4
2023-01-18T15:12:59.114Z,17.1
2023-01-18T15:17:35.596Z,16.9
2023-01-18T15:22:59.012Z,16.5
2023-01-18T15:28:35.858Z,16.2
2023-01-18T15:34:00.174Z,15.9
2023-01-18T15:39:23.109Z,15.6
2023-01-18T15:44:45.537Z,15.3
2023-01-18T15:49:52.900Z,15.2
2023-01-18T15:55:15.966Z,15
2023-01-18T16:00:39.356Z,14.8
2023-01-18T16:06:03.214Z,14.6
2023-01-18T16:11:42.565Z,14.3
2023-01-18T16:17:04.882Z,14.1
2023-01-18T16:22:26.962Z,13.9
2023-01-18T16:27:50.297Z,13.7
2023-01-18T16:33:15.037Z,13.4
2023-01-18T16:38:45.562Z,13.3
2023-01-18T16:44:22.559Z,13.1
2023-01-18T16:49:46.483Z,13
2023-01-18T16:55:09.220Z,12.9
2023-01-18T17:00:32.011Z,12.8
2023-01-18T17:05:55.337Z,12.5
2023-01-18T17:11:25.176Z,12.4
2023-01-18T17:16:48.848Z,12.4
2023-01-18T17:22:14.796Z,12.4
2023-01-18T17:27:37.381Z,12.4
2023-01-18T17:33:05.790Z,12.6
2023-01-18T17:38:43.201Z,12.6
2023-01-18T17:45:11.003Z,12.5
2023-01-18T17:50:45.008Z,12.6
2023-01-18T17:56:08.939Z,12.6
2023-01-18T18:01:32.728Z,12.6
2023-01-18T18:07:12.038Z,12.8
2023-01-18T18:12:36.145Z,12.9
2023-01-18T18:18:22.539Z,12.8
2023-01-18T18:23:33.332Z,12.8
2023-01-18T18:29:06.580Z,12.8
2023-01-18T18:34:32.316Z,12.8
2023-01-18T18:40:10.325Z,12.6
2023-01-18T18:45:39.754Z,12.4
2023-01-18T18:51:07.022Z,12.4
2023-01-18T18:56:23.714Z,12.3
2023-01-18T19:01:48.911Z,12.4
2023-01-18T19:07:13.973Z,12.3
2023-01-18T19:12:29.664Z,12.2
2023-01-18T19:18:04.652Z,12.1
2023-01-18T19:23:29.431Z,11.9
2023-01-18T19:28:53.544Z,11.8
2023-01-18T19:34:18.789Z,11.8
2023-01-18T19:39:56.034Z,11.6
2023-01-18T19:45:27.787Z,11.4
2023-01-18T19:50:37.553Z,11.4
2023-01-18T19:56:06.877Z,11.3
2023-01-18T20:01:26.761Z,11.1
2023-01-18T20:06:45.583Z,11.1
2023-01-18T20:12:04.451Z,10.9
2023-01-18T20:17:20.177Z,10.9
2023-01-18T20:22:52.770Z,10.9
2023-01-18T20:28:28.916Z,10.8
2023-01-18T20:34:02.447Z,10.6
2023-01-18T20:39:26.893Z,10.6
2023-01-18T20:44:50.799Z,10.5
2023-01-18T20:49:55.007Z,10.4
2023-01-18T20:55:04.247Z,10.4
2023-01-18T21:00:44.866Z,10.4
2023-01-18T21:05:55.245Z,10.3
2023-01-18T21:11:18.911Z,10.2
2023-01-18T21:16:11.921Z,10.1
2023-01-18T21:21:19.446Z,10
2023-01-18T21:26:42.230Z,10
2023-01-18T21:32:05.093Z,10
2023-01-18T21:37:28.298Z,9.9
2023-01-18T21:42:51.884Z,9.8
2023-01-18T21:48:15.275Z,9.9
2023-01-18T21:54:03.554Z,10.1
2023-01-18T21:59:26.926Z,10.1
2023-01-18T22:04:50.828Z,9.9
2023-01-18T22:10:22.508Z,9.9
2023-01-18T22:15:44.366Z,10.2
2023-01-18T22:20:51.807Z,10.8
2023-01-18T22:25:59.396Z,10.9
2023-01-18T22:31:24.991Z,11.2
2023-01-18T22:36:47.582Z,11.4
2023-01-18T22:42:10.123Z,11.8
2023-01-18T22:47:33.043Z,12
2023-01-18T22:52:55.797Z,12.1
2023-01-18T22:58:18.235Z,12.3
2023-01-18T23:03:25.786Z,12.3
2023-01-18T23:08:34.176Z,12.4
2023-01-18T23:13:41.593Z,12.4
2023-01-18T23:18:49.125Z,12.4
2023-01-18T23:24:11.457Z,12.4
2023-01-18T23:29:34.190Z,12.6
2023-01-18T23:34:25.934Z,12.7
2023-01-18T23:39:33.257Z,12.8
2023-01-18T23:44:55.791Z,12.8
2023-01-18T23:50:20.191Z,12.8
2023-01-18T23:55:44.563Z,12.8
